createdAt,value
2023-01-12T00:01:55.827Z,99368.66
2023-01-12T00:04:22.922Z,99356.06
2023-01-12T00:06:49.809Z,99353.72
2023-01-12T00:09:16.569Z,99336.91
2023-01-12T00:11:43.606Z,99344.88
2023-01-12T00:14:10.451Z,99345.22
2023-01-12T00:16:38.042Z,99345.28
2023-01-12T00:19:17.425Z,99322.50
2023-01-12T00:22:11.402Z,99359.50
2023-01-12T00:24:44.529Z,99346.59
2023-01-12T00:27:18.982Z,99350.00
2023-01-12T00:29:45.846Z,99357.53
2023-01-12T00:32:18.723Z,99353.88
2023-01-12T00:34:45.671Z,99365.75
2023-01-12T00:37:12.722Z,99363.88
2023-01-12T00:39:43.025Z,99363.78
2023-01-12T00:42:31.815Z,99371.53
2023-01-12T00:45:16.955Z,99362.03
2023-01-12T00:47:43.811Z,99359.50
2023-01-12T00:50:10.869Z,99353.53
2023-01-12T00:52:37.727Z,99355.34
2023-01-12T00:55:04.922Z,99353.75
2023-01-12T00:57:31.741Z,99348.84
2023-01-12T00:59:59.927Z,99349.84
2023-01-12T01:02:28.612Z,99369.50
2023-01-12T01:04:56.479Z,99369.84
2023-01-12T01:07:24.031Z,99375.66
2023-01-12T01:09:51.440Z,99334.38
2023-01-12T01:12:18.535Z,99359.50
2023-01-12T01:14:46.884Z,99363.75
2023-01-12T01:17:13.866Z,99363.91
2023-01-12T01:19:40.698Z,99361.31
2023-01-12T01:22:07.456Z,99357.25
2023-01-12T01:24:34.239Z,99353.06
2023-01-12T01:27:01.151Z,99361.50
2023-01-12T01:29:27.903Z,99359.84
2023-01-12T01:31:55.431Z,99351.13
2023-01-12T01:34:23.775Z,99358.81
2023-01-12T01:36:50.663Z,99363.22
2023-01-12T01:39:17.454Z,99364.66
2023-01-12T01:41:44.349Z,99356.22
2023-01-12T01:44:29.608Z,99367.06
2023-01-12T01:47:21.255Z,99363.44
2023-01-12T01:49:51.597Z,99351.69
2023-01-12T01:52:25.520Z,99379.09
2023-01-12T01:55:16.525Z,99371.09
2023-01-12T01:57:54.500Z,99378.78
2023-01-12T02:00:22.007Z,99384.72
2023-01-12T02:02:49.437Z,99381.34
2023-01-12T02:05:22.514Z,99360.28
2023-01-12T02:07:50.879Z,99380.75
2023-01-12T02:10:18.337Z,99375.31
2023-01-12T02:13:03.955Z,99375.22
2023-01-12T02:16:03.776Z,99381.97
2023-01-12T02:19:13.929Z,99376.28
2023-01-12T02:21:40.571Z,99375.41
2023-01-12T02:24:29.407Z,99362.59
2023-01-12T02:27:27.379Z,99353.47
2023-01-12T02:31:05.189Z,99337.69
2023-01-12T02:33:51.453Z,99336.09
2023-01-12T02:36:37.868Z,99342.50
2023-01-12T02:39:29.851Z,99318.72
2023-01-12T02:42:36.212Z,99329.63
2023-01-12T02:45:47.714Z,99325.94
2023-01-12T02:48:22.443Z,99314.53
2023-01-12T02:51:05.763Z,99308.50
2023-01-12T02:53:38.490Z,99304.09
2023-01-12T02:56:07.479Z,99286.81
2023-01-12T02:58:45.572Z,99288.66
2023-01-12T03:01:15.397Z,99283.25
2023-01-12T03:03:42.960Z,99274.72
2023-01-12T03:06:09.985Z,99216.31
2023-01-12T03:08:39.821Z,99269.38
2023-01-12T03:11:20.868Z,99271.03
2023-01-12T03:13:51.548Z,99259.97
2023-01-12T03:16:24.392Z,99264.59
2023-01-12T03:19:09.490Z,99262.75
2023-01-12T03:21:47.197Z,99270.50
2023-01-12T03:24:26.396Z,99287.09
2023-01-12T03:27:01.729Z,99277.72
2023-01-12T03:29:41.124Z,99281.25
2023-01-12T03:32:08.040Z,99288.31
2023-01-12T03:34:36.045Z,99276.19
2023-01-12T03:37:15.432Z,99274.47
2023-01-12T03:39:59.930Z,99264.19
2023-01-12T03:42:30.886Z,99268.19
2023-01-12T03:45:39.860Z,99275.50
2023-01-12T03:48:34.123Z,99265.31
2023-01-12T03:51:14.567Z,99272.28
2023-01-12T03:53:43.207Z,99281.72
2023-01-12T03:56:12.507Z,99278.41
2023-01-12T03:58:39.678Z,99272.13
2023-01-12T04:01:06.737Z,99271.34
2023-01-12T04:03:33.780Z,99267.84
2023-01-12T04:06:00.604Z,99266.91
2023-01-12T04:08:27.698Z,99252.41
2023-01-12T04:10:54.547Z,99245.22
2023-01-12T04:13:21.362Z,99255.13
2023-01-12T04:15:48.733Z,99270.44
2023-01-12T04:18:15.753Z,99256.09
2023-01-12T04:20:42.551Z,99275.56
2023-01-12T04:23:09.475Z,99266.22
2023-01-12T04:25:36.581Z,99272.00
2023-01-12T04:28:04.045Z,99267.69
2023-01-12T04:30:33.157Z,99262.47
2023-01-12T04:33:01.867Z,99232.78
2023-01-12T04:35:28.689Z,99253.81
2023-01-12T04:37:56.466Z,99256.25
2023-01-12T04:40:23.296Z,99241.03
2023-01-12T04:43:01.273Z,99240.84
2023-01-12T04:45:37.139Z,99239.28
2023-01-12T04:48:07.503Z,99234.13
2023-01-12T04:50:34.445Z,99217.06
2023-01-12T04:53:06.537Z,99229.56
2023-01-12T04:55:35.983Z,99222.75
2023-01-12T04:58:03.034Z,99204.03
2023-01-12T05:00:30.023Z,99231.91
2023-01-12T05:03:00.778Z,99215.25
2023-01-12T05:05:28.724Z,99223.06
2023-01-12T05:08:16.858Z,99220.44
2023-01-12T05:10:43.645Z,99219.06
2023-01-12T05:13:10.480Z,99228.59
2023-01-12T05:15:37.264Z,99230.31
2023-01-12T05:18:04.241Z,99227.59
2023-01-12T05:20:30.989Z,99203.50
2023-01-12T05:22:57.730Z,99220.38
2023-01-12T05:25:26.702Z,99223.91
2023-01-12T05:27:58.028Z,99217.81
2023-01-12T05:30:30.653Z,99216.00
2023-01-12T05:32:58.380Z,99218.41
2023-01-12T05:35:25.141Z,99213.97
2023-01-12T05:37:51.950Z,99180.97
2023-01-12T05:40:18.839Z,99220.72
2023-01-12T05:43:04.068Z,99193.91
2023-01-12T05:45:30.808Z,99214.47
2023-01-12T05:48:00.358Z,99198.66
2023-01-12T05:50:27.504Z,99203.50
2023-01-12T05:52:54.671Z,99195.28
2023-01-12T05:55:21.865Z,99206.34
2023-01-12T05:57:48.788Z,99198.25
2023-01-12T06:00:16.301Z,99163.63
2023-01-12T06:02:43.099Z,99201.59
2023-01-12T06:05:10.784Z,99183.63
2023-01-12T06:07:37.754Z,99195.22
2023-01-12T06:10:05.673Z,99192.50
2023-01-12T06:12:50.951Z,99190.84
2023-01-12T06:15:17.812Z,99178.78
2023-01-12T06:17:44.627Z,99175.25
2023-01-12T06:20:16.843Z,99170.78
2023-01-12T06:22:44.834Z,99186.34
2023-01-12T06:25:12.760Z,99184.69
2023-01-12T06:27:39.794Z,99160.44
2023-01-12T06:30:08.999Z,99164.13
2023-01-12T06:32:36.373Z,99159.69
2023-01-12T06:35:14.202Z,99160.50
2023-01-12T06:37:45.390Z,99153.47
2023-01-12T06:40:13.213Z,99150.25
2023-01-12T06:42:41.991Z,99152.66
2023-01-12T06:45:10.500Z,99155.19
2023-01-12T06:47:51.907Z,99150.19
2023-01-12T06:50:18.813Z,99146.66
2023-01-12T06:52:45.601Z,99131.34
2023-01-12T06:55:12.380Z,99145.13
2023-01-12T06:57:39.382Z,99130.00
2023-01-12T07:00:07.494Z,99146.88
2023-01-12T07:02:34.335Z,99155.34
2023-01-12T07:05:01.113Z,99164.47
2023-01-12T07:07:27.901Z,99163.03
2023-01-12T07:09:54.727Z,99151.69
2023-01-12T07:12:21.523Z,99143.94
2023-01-12T07:14:48.292Z,99130.25
2023-01-12T07:17:15.125Z,99143.56
2023-01-12T07:19:42.264Z,99153.63
2023-01-12T07:22:09.291Z,99150.09
2023-01-12T07:24:36.574Z,99150.75
2023-01-12T07:27:03.354Z,99139.34
2023-01-12T07:29:30.240Z,99137.91
2023-01-12T07:31:57.105Z,99139.34
2023-01-12T07:34:24.058Z,99149.81
2023-01-12T07:36:51.497Z,99132.03
2023-01-12T07:39:18.331Z,99144.66
2023-01-12T07:42:03.617Z,99148.09
2023-01-12T07:44:30.478Z,99145.63
2023-01-12T07:46:59.431Z,99137.19
2023-01-12T07:49:26.762Z,99142.59
2023-01-12T07:51:55.150Z,99148.69
2023-01-12T07:54:22.821Z,99150.28
2023-01-12T07:56:49.612Z,99162.69
2023-01-12T07:59:17.561Z,99158.72
2023-01-12T08:01:44.505Z,99167.13
2023-01-12T08:04:11.510Z,99153.31
2023-01-12T08:06:38.374Z,99166.91
2023-01-12T08:09:05.402Z,99165.34
2023-01-12T08:11:32.265Z,99148.25
2023-01-12T08:13:59.573Z,99144.66
2023-01-12T08:16:43.517Z,99122.75
2023-01-12T08:19:20.697Z,99147.19
2023-01-12T08:21:57.770Z,99126.34
2023-01-12T08:24:34.934Z,99125.66
2023-01-12T08:27:04.938Z,99140.81
2023-01-12T08:29:42.040Z,99115.69
2023-01-12T08:34:44.063Z,99138.00
2023-01-12T08:37:14.710Z,99136.91
2023-01-12T08:39:42.693Z,99145.97
2023-01-12T08:42:09.933Z,99147.88
2023-01-12T08:44:36.875Z,99140.19
2023-01-12T08:47:05.798Z,99137.09
2023-01-12T08:49:34.195Z,99155.44
2023-01-12T08:52:01.126Z,99151.44
2023-01-12T08:54:28.102Z,99156.53
2023-01-12T08:56:54.919Z,99136.00
2023-01-12T08:59:21.849Z,99138.63
2023-01-12T09:01:49.029Z,99146.06
2023-01-12T09:04:15.941Z,99141.28
2023-01-12T09:06:45.165Z,99130.94
2023-01-12T09:09:15.757Z,99145.19
2023-01-12T09:11:43.878Z,99138.22
2023-01-12T09:14:12.975Z,99149.06
2023-01-12T09:16:40.698Z,99141.25
2023-01-12T09:19:09.361Z,99140.78
2023-01-12T09:21:39.314Z,99136.06
2023-01-12T09:24:06.988Z,99147.38
2023-01-12T09:26:40.541Z,99109.00
2023-01-12T09:29:08.435Z,99153.91
2023-01-12T09:31:37.335Z,99158.59
2023-01-12T09:34:04.733Z,99140.25
2023-01-12T09:36:35.465Z,99161.53
2023-01-12T09:39:03.401Z,99167.69
2023-01-12T09:41:58.798Z,99163.31
2023-01-12T09:45:01.620Z,99171.66
2023-01-12T09:48:01.182Z,99168.44
2023-01-12T09:50:34.154Z,99177.09
2023-01-12T09:53:42.112Z,99181.28
2023-01-12T09:56:08.733Z,99178.78
2023-01-12T09:59:20.571Z,99170.34
2023-01-12T10:01:47.832Z,99170.09
2023-01-12T10:04:15.179Z,99164.94
2023-01-12T10:06:42.204Z,99119.91
2023-01-12T10:09:19.563Z,99153.16
2023-01-12T10:12:11.195Z,99144.13
2023-01-12T10:15:16.455Z,99142.38
2023-01-12T10:17:54.416Z,99131.56
2023-01-12T10:20:38.037Z,99133.84
2023-01-12T10:23:07.703Z,99122.13
2023-01-12T10:25:50.930Z,99077.13
2023-01-12T10:28:30.535Z,99096.06
2023-01-12T10:30:58.019Z,99103.66
2023-01-12T10:33:36.011Z,99097.47
2023-01-12T10:36:16.381Z,99076.66
2023-01-12T10:38:52.343Z,99087.34
2023-01-12T10:41:26.165Z,99082.25
2023-01-12T10:43:58.577Z,99077.78
2023-01-12T10:46:28.220Z,99075.31
2023-01-12T10:49:22.995Z,99082.25
2023-01-12T10:52:10.852Z,99088.00
2023-01-12T10:54:48.526Z,99087.59
2023-01-12T10:57:20.844Z,99097.09
2023-01-12T11:00:02.714Z,99084.56
2023-01-12T11:02:44.200Z,99081.81
2023-01-12T11:05:30.194Z,99086.94
2023-01-12T11:07:57.827Z,99081.25
2023-01-12T11:10:35.680Z,99077.34
2023-01-12T11:13:06.389Z,99088.63
2023-01-12T11:15:38.792Z,99057.28
2023-01-12T11:18:32.138Z,99063.81
2023-01-12T11:21:09.487Z,99053.19
2023-01-12T11:23:54.617Z,99059.63
2023-01-12T11:26:30.690Z,99067.72
2023-01-12T11:29:11.357Z,99063.72
2023-01-12T11:31:42.688Z,99068.66
2023-01-12T11:34:24.911Z,99046.53
2023-01-12T11:37:01.014Z,99057.50
2023-01-12T11:39:31.092Z,99047.00
2023-01-12T11:42:19.727Z,99043.53
2023-01-12T11:45:08.757Z,99048.72
2023-01-12T11:47:44.710Z,99065.06
2023-01-12T11:50:39.440Z,99047.78
2023-01-12T11:53:13.191Z,99020.09
2023-01-12T11:56:18.508Z,99049.50
2023-01-12T11:59:10.488Z,99054.66
2023-01-12T12:01:54.584Z,99051.09
2023-01-12T12:05:17.754Z,99052.47
2023-01-12T12:07:54.858Z,99055.84
2023-01-12T12:10:53.059Z,99036.81
2023-01-12T12:13:54.718Z,99008.97
2023-01-12T12:17:05.914Z,99014.41
2023-01-12T12:20:04.407Z,99000.63
2023-01-12T12:23:12.682Z,99016.84
2023-01-12T12:26:10.034Z,99006.84
2023-01-12T12:29:04.359Z,99001.81
2023-01-12T12:32:03.044Z,99008.53
2023-01-12T12:35:10.514Z,99006.91
2023-01-12T12:38:18.515Z,98996.06
2023-01-12T12:41:20.525Z,98985.03
2023-01-12T12:44:21.650Z,98992.59
2023-01-12T12:47:51.994Z,98993.22
2023-01-12T12:50:24.542Z,98991.03
2023-01-12T12:53:13.600Z,99011.47
2023-01-12T12:55:41.376Z,98995.34
2023-01-12T12:58:23.495Z,98996.81
2023-01-12T13:00:52.081Z,99003.72
2023-01-12T13:03:41.034Z,98997.84
2023-01-12T13:06:39.000Z,98995.22
2023-01-12T13:09:11.811Z,98994.28
2023-01-12T13:12:19.037Z,98992.75
2023-01-12T13:15:21.735Z,98976.59
2023-01-12T13:17:52.769Z,99001.22
2023-01-12T13:20:25.765Z,99000.41
2023-01-12T13:22:53.233Z,98985.28
2023-01-12T13:25:20.360Z,99004.31
2023-01-12T13:28:17.124Z,98987.44
2023-01-12T13:30:53.272Z,99010.53
2023-01-12T13:33:29.370Z,98955.56
2023-01-12T13:36:00.721Z,98981.88
2023-01-12T13:39:01.730Z,98996.31
2023-01-12T13:41:55.666Z,98983.81
2023-01-12T13:44:40.215Z,98982.81
2023-01-12T13:47:25.662Z,98994.84
2023-01-12T13:49:59.130Z,98983.31
2023-01-12T13:52:35.318Z,98987.66
2023-01-12T13:55:03.185Z,98985.75
2023-01-12T13:57:31.859Z,99000.00
2023-01-12T14:00:09.237Z,99007.63
2023-01-12T14:02:38.262Z,99007.88
2023-01-12T14:05:56.102Z,99009.03
2023-01-12T14:09:22.869Z,99001.47
2023-01-12T14:12:14.801Z,99016.25
2023-01-12T14:15:24.051Z,98995.97
2023-01-12T14:17:53.336Z,98989.72
2023-01-12T14:20:24.753Z,99011.69
2023-01-12T14:23:27.349Z,99003.84
2023-01-12T14:26:09.383Z,99012.03
2023-01-12T14:28:45.335Z,98980.75
2023-01-12T14:31:27.040Z,98988.38
2023-01-12T14:33:57.113Z,98986.56
2023-01-12T14:36:45.054Z,98988.44
2023-01-12T14:39:20.195Z,98978.78
2023-01-12T14:42:12.552Z,98990.97
2023-01-12T14:45:11.376Z,98977.41
2023-01-12T14:47:38.757Z,98978.78
2023-01-12T14:50:19.500Z,98973.75
2023-01-12T14:52:47.980Z,98985.63
2023-01-12T14:55:27.010Z,98973.06
2023-01-12T14:57:59.851Z,98978.84
2023-01-12T15:00:34.274Z,98983.59
2023-01-12T15:03:07.582Z,98975.81
2023-01-12T15:05:36.689Z,98973.28
2023-01-12T15:08:26.626Z,98957.00
2023-01-12T15:11:08.004Z,98984.28
2023-01-12T15:13:38.346Z,98990.38
2023-01-12T15:16:24.575Z,98980.09
2023-01-12T15:19:09.894Z,98985.50
2023-01-12T15:21:56.409Z,98972.31
2023-01-12T15:24:48.245Z,98974.44
2023-01-12T15:27:18.464Z,98979.84
2023-01-12T15:29:45.443Z,98974.28
2023-01-12T15:32:47.263Z,98980.00
2023-01-12T15:35:29.970Z,98978.94
2023-01-12T15:37:58.603Z,98975.13
2023-01-12T15:40:27.346Z,98987.84
2023-01-12T15:42:54.460Z,98975.34
2023-01-12T15:45:35.913Z,98970.25
2023-01-12T15:48:03.941Z,98958.66
2023-01-12T15:50:32.511Z,98981.22
2023-01-12T15:53:01.082Z,98956.06
2023-01-12T15:55:31.324Z,98970.06
2023-01-12T15:57:58.318Z,98966.59
2023-01-12T16:00:25.753Z,98940.84
2023-01-12T16:02:52.919Z,98964.28
2023-01-12T16:05:23.023Z,98971.25
2023-01-12T16:07:50.334Z,98964.44
2023-01-12T16:10:18.625Z,98961.84
2023-01-12T16:12:47.764Z,98966.06
2023-01-12T16:15:19.256Z,98963.84
2023-01-12T16:17:46.873Z,98957.28
2023-01-12T16:20:16.565Z,98950.63
2023-01-12T16:22:44.330Z,98952.34
2023-01-12T16:25:11.622Z,98937.94
2023-01-12T16:27:39.306Z,98942.88
2023-01-12T16:30:10.165Z,98948.53
2023-01-12T16:32:37.075Z,98941.81
2023-01-12T16:35:04.305Z,98940.97
2023-01-12T16:37:33.219Z,98939.31
2023-01-12T16:40:00.884Z,98940.53
2023-01-12T16:42:28.191Z,98950.63
2023-01-12T16:44:55.324Z,98946.06
2023-01-12T16:47:22.356Z,98940.97
2023-01-12T16:49:51.277Z,98944.16
2023-01-12T16:52:21.007Z,98937.94
2023-01-12T16:54:47.939Z,98934.38
2023-01-12T16:57:16.912Z,98946.16
2023-01-12T16:59:44.334Z,98933.13
2023-01-12T17:02:15.790Z,98925.50
2023-01-12T17:04:44.754Z,98940.97
2023-01-12T17:07:11.850Z,98923.44
2023-01-12T17:09:39.786Z,98940.53
2023-01-12T17:12:07.607Z,98929.31
2023-01-12T17:14:35.363Z,98903.31
2023-01-12T17:17:08.249Z,98919.28
2023-01-12T17:19:38.000Z,98926.03
2023-01-12T17:22:07.767Z,98907.47
2023-01-12T17:24:40.149Z,98909.75
2023-01-12T17:27:09.221Z,98908.06
2023-01-12T17:29:36.803Z,98913.66
2023-01-12T17:32:07.051Z,98908.06
2023-01-12T17:34:38.264Z,98916.28
2023-01-12T17:37:08.453Z,98909.66
2023-01-12T17:39:40.480Z,98910.81
2023-01-12T17:42:26.527Z,98922.03
2023-01-12T17:44:53.435Z,98909.00
2023-01-12T17:47:20.548Z,98916.44
2023-01-12T17:49:47.980Z,98924.22
2023-01-12T17:52:14.954Z,98913.09
2023-01-12T17:54:41.885Z,98905.63
2023-01-12T17:57:09.025Z,98920.94
2023-01-12T17:59:35.981Z,98891.84
2023-01-12T18:02:03.119Z,98906.41
2023-01-12T18:04:30.001Z,98903.41
2023-01-12T18:06:56.983Z,98905.03
2023-01-12T18:09:24.028Z,98883.84
2023-01-12T18:11:50.837Z,98895.44
2023-01-12T18:14:20.816Z,98885.34
2023-01-12T18:16:47.999Z,98892.97
2023-01-12T18:19:14.989Z,98897.25
2023-01-12T18:21:41.807Z,98892.06
2023-01-12T18:24:08.909Z,98851.91
2023-01-12T18:26:36.046Z,98879.19
2023-01-12T18:29:05.553Z,98888.47
2023-01-12T18:31:37.586Z,98877.66
2023-01-12T18:34:06.468Z,98881.09
2023-01-12T18:36:37.719Z,98885.50
2023-01-12T18:39:07.938Z,98881.53
2023-01-12T18:41:55.090Z,98872.19
2023-01-12T18:44:23.143Z,98876.34
2023-01-12T18:47:08.478Z,98877.88
2023-01-12T18:49:36.348Z,98855.34
2023-01-12T18:52:23.016Z,98872.91
2023-01-12T18:54:53.755Z,98863.47
2023-01-12T18:57:24.125Z,98860.13
2023-01-12T18:59:56.182Z,98861.13
2023-01-12T19:02:23.489Z,98828.78
2023-01-12T19:04:50.649Z,98829.38
2023-01-12T19:07:34.809Z,98855.78
2023-01-12T19:10:01.673Z,98861.28
2023-01-12T19:12:31.019Z,98846.28
2023-01-12T19:15:16.450Z,98856.47
2023-01-12T19:17:43.431Z,98843.09
2023-01-12T19:20:17.101Z,98849.25
2023-01-12T19:23:02.568Z,98854.25
2023-01-12T19:25:48.064Z,98833.13
2023-01-12T19:28:32.595Z,98863.94
2023-01-12T19:31:01.771Z,98860.66
2023-01-12T19:33:29.050Z,98841.25
2023-01-12T19:35:56.004Z,98864.03
2023-01-12T19:38:23.284Z,98860.03
2023-01-12T19:40:58.137Z,98862.81
2023-01-12T19:43:27.725Z,98854.50
2023-01-12T19:46:00.767Z,98861.81
2023-01-12T19:48:27.743Z,98864.63
2023-01-12T19:50:54.960Z,98854.47
2023-01-12T19:53:25.936Z,98851.97
2023-01-12T19:55:53.061Z,98856.63
2023-01-12T19:58:21.970Z,98818.78
2023-01-12T20:00:49.945Z,98842.00
2023-01-12T20:03:22.403Z,98835.53
2023-01-12T20:05:51.349Z,98848.28
2023-01-12T20:08:24.037Z,98847.41
2023-01-12T20:10:59.318Z,98851.06
2023-01-12T20:13:27.411Z,98851.66
2023-01-12T20:15:56.664Z,98859.38
2023-01-12T20:18:23.571Z,98843.13
2023-01-12T20:20:50.872Z,98843.91
2023-01-12T20:23:19.918Z,98837.06
2023-01-12T20:25:46.797Z,98845.25
2023-01-12T20:28:13.889Z,98839.56
2023-01-12T20:30:43.051Z,98822.56
2023-01-12T20:33:11.051Z,98837.66
2023-01-12T20:35:43.708Z,98823.78
2023-01-12T20:38:15.451Z,98826.38
2023-01-12T20:40:44.609Z,98799.09
2023-01-12T20:43:11.564Z,98811.66
2023-01-12T20:45:41.402Z,98761.44
2023-01-12T20:48:08.499Z,98803.03
2023-01-12T20:50:36.069Z,98787.91
2023-01-12T20:53:03.301Z,98778.53
2023-01-12T20:55:30.360Z,98804.75
2023-01-12T20:57:57.150Z,98781.50
2023-01-12T21:00:24.248Z,98786.75
2023-01-12T21:02:51.143Z,98787.78
2023-01-12T21:05:18.027Z,98776.06
2023-01-12T21:07:44.801Z,98776.28
2023-01-12T21:10:12.022Z,98772.25
2023-01-12T21:12:39.016Z,98775.91
2023-01-12T21:15:06.603Z,98764.94
2023-01-12T21:17:35.743Z,98774.41
2023-01-12T21:20:03.133Z,98769.53
2023-01-12T21:22:30.002Z,98764.19
2023-01-12T21:24:56.801Z,98752.53
2023-01-12T21:27:23.674Z,98762.44
2023-01-12T21:29:50.493Z,98765.88
2023-01-12T21:32:17.462Z,98756.66
2023-01-12T21:34:44.310Z,98738.91
2023-01-12T21:37:11.165Z,98742.78
2023-01-12T21:39:38.033Z,98729.91
2023-01-12T21:42:23.522Z,98722.97
2023-01-12T21:44:50.294Z,98740.66
2023-01-12T21:47:17.061Z,98744.63
2023-01-12T21:49:43.900Z,98741.22
2023-01-12T21:52:10.769Z,98732.03
2023-01-12T21:54:37.517Z,98742.22
2023-01-12T21:57:04.943Z,98739.31
2023-01-12T21:59:31.896Z,98735.19
2023-01-12T22:01:58.867Z,98734.28
2023-01-12T22:04:25.671Z,98721.25
2023-01-12T22:06:52.823Z,98736.63
2023-01-12T22:09:19.694Z,98727.91
2023-01-12T22:11:46.482Z,98734.03
2023-01-12T22:14:13.306Z,98733.69
2023-01-12T22:16:40.184Z,98717.53
2023-01-12T22:19:07.065Z,98717.97
2023-01-12T22:21:33.865Z,98723.81
2023-01-12T22:24:00.781Z,98730.41
2023-01-12T22:26:29.652Z,98716.78
2023-01-12T22:28:56.506Z,98726.41
2023-01-12T22:31:24.966Z,98729.53
2023-01-12T22:33:58.394Z,98719.06
2023-01-12T22:36:25.375Z,98709.63
2023-01-12T22:38:52.492Z,98704.59
2023-01-12T22:41:21.751Z,98719.25
2023-01-12T22:43:49.658Z,98697.25
2023-01-12T22:46:27.166Z,98712.38
2023-01-12T22:48:56.726Z,98703.09
2023-01-12T22:51:25.527Z,98701.41
2023-01-12T22:53:53.631Z,98710.63
2023-01-12T22:56:20.693Z,98708.69
2023-01-12T22:58:52.667Z,98704.88
2023-01-12T23:01:21.936Z,98705.19
2023-01-12T23:03:54.337Z,98700.50
2023-01-12T23:06:23.045Z,98705.19
2023-01-12T23:08:52.411Z,98697.84
2023-01-12T23:11:23.569Z,98692.97
2023-01-12T23:13:51.964Z,98696.81
2023-01-12T23:16:19.505Z,98707.03
2023-01-12T23:18:47.811Z,98703.34
2023-01-12T23:21:21.412Z,98702.50
2023-01-12T23:23:51.629Z,98689.97
2023-01-12T23:26:25.834Z,98700.16
2023-01-12T23:28:56.352Z,98691.31
2023-01-12T23:31:30.549Z,98689.41
2023-01-12T23:33:57.628Z,98678.28
2023-01-12T23:36:28.698Z,98676.28
2023-01-12T23:39:01.740Z,98692.13
2023-01-12T23:41:30.931Z,98678.94
2023-01-12T23:44:00.185Z,98679.13
2023-01-12T23:46:29.132Z,98682.63
2023-01-12T23:48:57.682Z,98667.56
2023-01-12T23:51:29.392Z,98668.41
2023-01-12T23:54:01.200Z,98681.63
2023-01-12T23:56:31.716Z,98683.28
2023-01-12T23:58:58.754Z,98677.22
